![]() |
EMODnet Physics ERDDAP
Easier access to scientific data |
log in|
Brought to you by EMODnet Physics |
| Dataset Title: | NDBC - Collection of dew point temperature (DEWT) TimeSeries - IN SITU MultiPointTimeSeriesObservation
|
| Institution: | NDBC (Dataset ID: TS_DEWT_NDBC) |
| Information: | Summary
| License
| FGDC
| ISO 19115
| Metadata
| Background
| Subset
| Data Access Form
| Make a graph
|
| Name | Last modified | Size | Description | |
|---|---|---|---|---|
| Parent Directory | - | - | ||
| 45168_TS_DEWT_042015.nc | 26-Dec-2024 20:42 | 429614 | ||
| 45168_TS_DEWT_042016.nc | 26-Dec-2024 20:44 | 429400 | ||
| 45168_TS_DEWT_042017.nc | 26-Dec-2024 20:47 | 429606 | ||
| 45168_TS_DEWT_042018.nc | 26-Dec-2024 20:50 | 450009 | ||
| 45168_TS_DEWT_042019.nc | 26-Dec-2024 20:52 | 429618 | ||
| 45168_TS_DEWT_042020.nc | 26-Dec-2024 20:55 | 429607 | ||
| 45168_TS_DEWT_042021.nc | 26-Dec-2024 20:58 | 429613 | ||
| 45168_TS_DEWT_042022.nc | 26-Dec-2024 21:01 | 449905 | ||
| 45168_TS_DEWT_042023.nc | 26-Dec-2024 21:03 | 449720 | ||
| 45168_TS_DEWT_042025.nc | 01-May-2025 04:50 | 448681 | ||
| 45168_TS_DEWT_052015.nc | 26-Dec-2024 20:42 | 449969 | ||
| 45168_TS_DEWT_052016.nc | 26-Dec-2024 20:45 | 450563 | ||
| 45168_TS_DEWT_052017.nc | 26-Dec-2024 20:47 | 449753 | ||
| 45168_TS_DEWT_052018.nc | 26-Dec-2024 20:50 | 450116 | ||
| 45168_TS_DEWT_052019.nc | 26-Dec-2024 20:53 | 450169 | ||
| 45168_TS_DEWT_052020.nc | 26-Dec-2024 20:56 | 450112 | ||
| 45168_TS_DEWT_052021.nc | 26-Dec-2024 20:58 | 450247 | ||
| 45168_TS_DEWT_052022.nc | 26-Dec-2024 21:01 | 440005 | ||
| 45168_TS_DEWT_052023.nc | 26-Dec-2024 21:04 | 445096 | ||
| 45168_TS_DEWT_052025.nc | 18-Jun-2025 07:54 | 429833 | ||
| 45168_TS_DEWT_062015.nc | 26-Dec-2024 20:43 | 447381 | ||
| 45168_TS_DEWT_062016.nc | 26-Dec-2024 20:45 | 449859 | ||
| 45168_TS_DEWT_062017.nc | 26-Dec-2024 20:48 | 429672 | ||
| 45168_TS_DEWT_062018.nc | 26-Dec-2024 20:51 | 429569 | ||
| 45168_TS_DEWT_062019.nc | 26-Dec-2024 20:53 | 429834 | ||
| 45168_TS_DEWT_062020.nc | 26-Dec-2024 20:56 | 429832 | ||
| 45168_TS_DEWT_062021.nc | 26-Dec-2024 20:59 | 429830 | ||
| 45168_TS_DEWT_062022.nc | 26-Dec-2024 21:01 | 429834 | ||
| 45168_TS_DEWT_062023.nc | 26-Dec-2024 21:04 | 429817 | ||
| 45168_TS_DEWT_062025.nc | 01-Jul-2025 04:43 | 429948 | ||
| 45168_TS_DEWT_072014.nc | 26-Dec-2024 20:40 | 431355 | ||
| 45168_TS_DEWT_072015.nc | 26-Dec-2024 20:43 | 430106 | ||
| 45168_TS_DEWT_072016.nc | 26-Dec-2024 20:46 | 430179 | ||
| 45168_TS_DEWT_072017.nc | 26-Dec-2024 20:48 | 430103 | ||
| 45168_TS_DEWT_072018.nc | 26-Dec-2024 20:51 | 429838 | ||
| 45168_TS_DEWT_072019.nc | 26-Dec-2024 20:54 | 428807 | ||
| 45168_TS_DEWT_072020.nc | 26-Dec-2024 20:57 | 430729 | ||
| 45168_TS_DEWT_072021.nc | 26-Dec-2024 20:59 | 428881 | ||
| 45168_TS_DEWT_072022.nc | 26-Dec-2024 21:02 | 429390 | ||
| 45168_TS_DEWT_072023.nc | 26-Dec-2024 21:04 | 427555 | ||
| 45168_TS_DEWT_072025.nc | 01-Aug-2025 04:54 | 419273 | ||
| 45168_TS_DEWT_082014.nc | 26-Dec-2024 20:41 | 422148 | ||
| 45168_TS_DEWT_082015.nc | 26-Dec-2024 20:43 | 429836 | ||
| 45168_TS_DEWT_082016.nc | 26-Dec-2024 20:46 | 431305 | ||
| 45168_TS_DEWT_082017.nc | 26-Dec-2024 20:49 | 429964 | ||
| 45168_TS_DEWT_082018.nc | 26-Dec-2024 20:51 | 430306 | ||
| 45168_TS_DEWT_082019.nc | 26-Dec-2024 20:54 | 430192 | ||
| 45168_TS_DEWT_082020.nc | 26-Dec-2024 20:57 | 424531 | ||
| 45168_TS_DEWT_082021.nc | 26-Dec-2024 21:00 | 429073 | ||
| 45168_TS_DEWT_082022.nc | 26-Dec-2024 21:02 | 429356 | ||
| 45168_TS_DEWT_082023.nc | 26-Dec-2024 21:05 | 429707 | ||
| 45168_TS_DEWT_082025.nc | 30-Aug-2025 04:53 | 429402 | ||
| 45168_TS_DEWT_092014.nc | 26-Dec-2024 20:41 | 429958 | ||
| 45168_TS_DEWT_092015.nc | 26-Dec-2024 20:44 | 429566 | ||
| 45168_TS_DEWT_092016.nc | 26-Dec-2024 20:46 | 429445 | ||
| 45168_TS_DEWT_092017.nc | 26-Dec-2024 20:49 | 429634 | ||
| 45168_TS_DEWT_092018.nc | 26-Dec-2024 20:52 | 429832 | ||
| 45168_TS_DEWT_092019.nc | 26-Dec-2024 20:55 | 430870 | ||
| 45168_TS_DEWT_092020.nc | 26-Dec-2024 20:57 | 420422 | ||
| 45168_TS_DEWT_092021.nc | 26-Dec-2024 21:00 | 430674 | ||
| 45168_TS_DEWT_092022.nc | 26-Dec-2024 21:02 | 430033 | ||
| 45168_TS_DEWT_092023.nc | 26-Dec-2024 21:05 | 429142 | ||
| 45168_TS_DEWT_092024.nc | 11-Jan-2025 23:20 | 429528 | ||
| 45168_TS_DEWT_092025.nc | 01-Oct-2025 04:18 | 429333 | ||
| 45168_TS_DEWT_102014.nc | 26-Dec-2024 20:42 | 430823 | ||
| 45168_TS_DEWT_102015.nc | 26-Dec-2024 20:44 | 422085 | ||
| 45168_TS_DEWT_102016.nc | 26-Dec-2024 20:47 | 428734 | ||
| 45168_TS_DEWT_102017.nc | 26-Dec-2024 20:49 | 429722 | ||
| 45168_TS_DEWT_102018.nc | 26-Dec-2024 20:52 | 429211 | ||
| 45168_TS_DEWT_102019.nc | 26-Dec-2024 20:55 | 429730 | ||
| 45168_TS_DEWT_102020.nc | 26-Dec-2024 20:58 | 429511 | ||
| 45168_TS_DEWT_102021.nc | 26-Dec-2024 21:00 | 430930 | ||
| 45168_TS_DEWT_102022.nc | 26-Dec-2024 21:03 | 423932 | ||
| 45168_TS_DEWT_102023.nc | 26-Dec-2024 21:06 | 430557 | ||
| 45168_TS_DEWT_102024.nc | 12-Jan-2025 20:35 | 423239 | ||
| 45168_TS_DEWT_102025.nc | 01-Nov-2025 06:18 | 429623 | ||
| 45168_TS_DEWT_112017.nc | 26-Dec-2024 20:50 | 429704 | ||
| 45168_TS_DEWT_112023.nc | 26-Dec-2024 21:06 | 429854 | ||
| 45168_TS_DEWT_112024.nc | 20-Jan-2025 13:29 | 430639 | ||
| 45168_TS_DEWT_112025.nc | 15-Nov-2025 07:34 | 424152 | ||